Weather reports worldwide

Advertisment
Mannheim City Airport, Germany (10730): temperature & dewpoint: 10.09.2019 05:00:00 - 16.09.2019 05:00:00 (CEST)Mannheim City Airport, Germany (10730): wind speed: 10.09.2019 05:00:00 - 16.09.2019 05:00:00 (CEST)Mannheim City Airport, Germany (10730): wind direction: 10.09.2019 05:00:00 - 16.09.2019 05:00:00 (CEST)Mannheim City Airport, Germany (10730): visibility: 10.09.2019 05:00:00 - 16.09.2019 05:00:00 (CEST)
Date & Time tt [°C] td [°C] ff [km/h] ff [kn] dd vv [km]
16.09.2019 05:00:00 - - - - - -
16.09.2019 04:00:00 - - - - - -
16.09.2019 03:00:00 - - - - - -
16.09.2019 02:00:00 - - - - - -
16.09.2019 01:00:00 - - - - - -
16.09.2019 00:00:00 - - - - - -
15.09.2019 23:00:00 - - - - - -
15.09.2019 22:00:00 - - - - - -
15.09.2019 21:00:00 - - - - - -
15.09.2019 20:00:00 23,0 14,0 4 2 S 10
15.09.2019 19:00:00 26,0 13,0 5 3 S 10
15.09.2019 18:00:00 27,0 13,0 5 3 - 10
15.09.2019 17:00:00 27,0 13,0 4 2 - 10
15.09.2019 16:00:00 26,0 13,0 2 1 - 10
15.09.2019 15:00:00 25,0 13,0 8 4 WSW 10
15.09.2019 14:00:00 23,0 13,0 5 3 - 10
15.09.2019 13:00:00 23,0 13,0 5 3 - 10
15.09.2019 12:00:00 21,0 12,0 5 3 - 10
15.09.2019 11:00:00 19,0 11,0 0 0 N 10
15.09.2019 10:00:00 17,0 11,0 4 2 - 10
15.09.2019 09:00:00 15,0 11,0 5 3 NNW 10
15.09.2019 08:00:00 13,0 10,0 5 3 - 10
15.09.2019 07:00:00 - - - - - -
15.09.2019 06:00:00 - - - - - -
15.09.2019 05:00:00 - - - - - -
15.09.2019 04:00:00 - - - - - -
15.09.2019 03:00:00 - - - - - -
15.09.2019 02:00:00 - - - - - -
15.09.2019 01:00:00 - - - - - -
15.09.2019 00:00:00 - - - - - -
14.09.2019 23:00:00 - - - - - -
14.09.2019 22:00:00 - - - - - -
14.09.2019 21:00:00 - - - - - -
14.09.2019 20:00:00 22,0 13,0 8 4 N 10
14.09.2019 19:00:00 23,0 13,0 9 5 N 10
14.09.2019 18:00:00 24,0 12,0 8 4 NNE 10
14.09.2019 17:00:00 24,0 13,0 9 5 NNE 10
14.09.2019 16:00:00 24,0 13,0 4 2 - 10
14.09.2019 15:00:00 23,0 14,0 9 5 - 10
14.09.2019 14:00:00 23,0 13,0 11 6 NNE 10
14.09.2019 13:00:00 21,0 14,0 15 8 NNW 10
14.09.2019 12:00:00 20,0 13,0 4 2 - 10
14.09.2019 11:00:00 18,0 13,0 8 4 NW 10
14.09.2019 10:00:00 16,0 12,0 8 4 NNW 10
14.09.2019 09:00:00 14,0 12,0 13 7 NNW 10
14.09.2019 08:00:00 13,0 12,0 15 8 N 10
14.09.2019 07:00:00 - - - - - -
14.09.2019 06:00:00 - - - - - -
14.09.2019 05:00:00 - - - - - -
14.09.2019 04:00:00 - - - - - -
14.09.2019 03:00:00 - - - - - -
14.09.2019 02:00:00 - - - - - -
14.09.2019 01:00:00 16,0 14,0 9 5 N 10
14.09.2019 00:00:00 17,0 14,0 9 5 N 10
13.09.2019 23:00:00 18,0 14,0 5 3 N 10
13.09.2019 22:00:00 17,0 15,0 4 2 NNE 10
13.09.2019 21:00:00 19,0 15,0 0 0 N 10
13.09.2019 20:00:00 20,0 15,0 4 2 N 10
13.09.2019 19:00:00 22,0 15,0 8 4 NNE 10
13.09.2019 18:00:00 23,0 14,0 9 5 N 10
13.09.2019 17:00:00 23,0 14,0 8 4 NNW 10
13.09.2019 16:00:00 23,0 14,0 13 7 NW 10
13.09.2019 15:00:00 23,0 15,0 13 7 WNW 10
13.09.2019 14:00:00 23,0 15,0 11 6 NW 10
13.09.2019 13:00:00 22,0 15,0 11 6 NW 10
13.09.2019 12:00:00 21,0 14,0 8 4 N 10
13.09.2019 11:00:00 21,0 16,0 4 2 - 10
13.09.2019 10:00:00 18,0 15,0 4 2 - 10
13.09.2019 09:00:00 17,0 14,0 5 3 - 10
13.09.2019 08:00:00 15,0 14,0 5 3 SE 10
13.09.2019 07:00:00 14,0 13,0 4 2 - 10
13.09.2019 06:00:00 15,0 14,0 4 2 - 10
13.09.2019 05:00:00 - - - - - -
13.09.2019 04:00:00 - - - - - -
13.09.2019 03:00:00 - - - - - -
13.09.2019 02:00:00 - - - - - -
13.09.2019 01:00:00 - - - - - -
13.09.2019 00:00:00 - - - - - -
12.09.2019 23:00:00 - - - - - -
12.09.2019 22:00:00 - - - - - -
12.09.2019 21:00:00 - - - - - -
12.09.2019 20:00:00 21,0 15,0 0 0 N 10
12.09.2019 19:00:00 24,0 15,0 5 3 - 10
12.09.2019 18:00:00 24,0 15,0 9 5 W 10
12.09.2019 17:00:00 24,0 14,0 13 7 WSW 10
12.09.2019 16:00:00 23,0 15,0 9 5 WNW 10
12.09.2019 15:00:00 23,0 15,0 8 4 NW 10
12.09.2019 14:00:00 23,0 14,0 15 8 WSW 10
12.09.2019 13:00:00 22,0 13,0 9 5 S 10
12.09.2019 12:00:00 21,0 13,0 11 6 S 10
12.09.2019 11:00:00 20,0 12,0 9 5 SSW 10
12.09.2019 10:00:00 19,0 11,0 9 5 S 10
12.09.2019 09:00:00 18,0 12,0 8 4 S 10
12.09.2019 08:00:00 17,0 11,0 8 4 SSE 10
12.09.2019 07:00:00 17,0 11,0 5 3 SE 10
12.09.2019 06:00:00 17,0 11,0 8 4 SSE 10
12.09.2019 05:00:00 - - - - - -
12.09.2019 04:00:00 - - - - - -
12.09.2019 03:00:00 - - - - - -
12.09.2019 02:00:00 - - - - - -
12.09.2019 01:00:00 - - - - - -
12.09.2019 00:00:00 - - - - - -
11.09.2019 23:00:00 - - - - - -
11.09.2019 22:00:00 19,0 8,0 8 4 S 10
11.09.2019 21:00:00 19,0 8,0 8 4 SSW 10
11.09.2019 20:00:00 20,0 8,0 9 5 SW 10
11.09.2019 19:00:00 21,0 8,0 11 6 WSW 10
11.09.2019 18:00:00 21,0 7,0 13 7 WSW 10
11.09.2019 17:00:00 22,0 8,0 13 7 WSW 10
11.09.2019 16:00:00 22,0 8,0 11 6 SSE 10
11.09.2019 15:00:00 22,0 8,0 8 4 S 10
11.09.2019 14:00:00 22,0 9,0 8 4 - 10
11.09.2019 13:00:00 20,0 10,0 8 4 SSE 10
11.09.2019 12:00:00 18,0 10,0 8 4 SSE 10
11.09.2019 11:00:00 16,0 10,0 5 3 - 10
11.09.2019 10:00:00 14,0 10,0 4 2 - 10
11.09.2019 09:00:00 13,0 11,0 0 0 N 10
11.09.2019 08:00:00 10,0 9,0 4 2 ESE 10
11.09.2019 07:00:00 8,0 8,0 0 0 N 10
11.09.2019 06:00:00 9,0 9,0 4 2 ENE 10
11.09.2019 05:00:00 - - - - - -
11.09.2019 04:00:00 - - - - - -
11.09.2019 03:00:00 - - - - - -
11.09.2019 02:00:00 - - - - - -
11.09.2019 01:00:00 - - - - - -
11.09.2019 00:00:00 - - - - - -
10.09.2019 23:00:00 - - - - - -
10.09.2019 22:00:00 13,0 10,0 2 1 NNE 10
10.09.2019 21:00:00 - - - - - -
10.09.2019 20:00:00 18,0 8,0 2 1 E 10
10.09.2019 19:00:00 20,0 7,0 8 4 NE 10
10.09.2019 18:00:00 20,0 8,0 13 7 N 10
10.09.2019 17:00:00 20,0 7,0 8 4 NE 10
10.09.2019 16:00:00 20,0 8,0 5 3 - 10
10.09.2019 15:00:00 20,0 8,0 5 3 - 10
10.09.2019 14:00:00 19,0 8,0 5 3 - 10
10.09.2019 13:00:00 19,0 8,0 2 1 - 10
10.09.2019 12:00:00 18,0 10,0 4 2 - 10
10.09.2019 11:00:00 16,0 11,0 5 3 - 10
10.09.2019 10:00:00 13,0 10,0 8 4 N 10
10.09.2019 09:00:00 11,0 10,0 5 3 N 10
10.09.2019 08:00:00 10,0 9,0 4 2 N 10
10.09.2019 07:00:00 9,0 8,0 0 0 N 10
10.09.2019 06:00:00 9,0 9,0 0 0 N 8
10.09.2019 05:00:00 - - - - - -

tt = temperature
td = dewpoint
ff = wind speed
dd = wind direction
vv = visibility

Next stations